Time;durP1;ratioP1;P1;durP2;ratioP2;P2;SDS_P1;SDS_P2;PMS_P1;PMS_P2;Temp;Humidity;BMP_temperature;BMP_pressure;BME280_temperature;BME280_humidity;BME280_pressure;Samples;Min_cycle;Max_cycle;Signal;HPM_P1;HPM_P2
2022/04/22 00:03:35;;;;;;;5.40;2.83;;;12.30;77.50;;;;;;10254227;28;20039;-88
2022/04/22 00:08:39;;;;;;;4.80;2.95;;;12.30;77.50;;;;;;10241412;28;20497;-88
2022/04/22 00:13:42;;;;;;;4.43;2.67;;;12.20;77.80;;;;;;10277740;28;20043;-88
2022/04/22 00:18:49;;;;;;;7.38;3.05;;;12.20;78.40;;;;;;10253829;28;20085;-88
2022/04/22 00:23:50;;;;;;;5.45;2.60;;;12.10;78.60;;;;;;10261725;28;20936;-89
2022/04/22 00:28:52;;;;;;;6.80;3.75;;;12.00;78.70;;;;;;10257263;28;20059;-88
2022/04/22 00:33:52;;;;;;;9.43;3.95;;;12.00;79.10;;;;;;10282648;28;20046;-88
2022/04/22 00:38:53;;;;;;;8.88;4.00;;;11.90;79.50;;;;;;10252737;28;20098;-88
2022/04/22 00:43:55;;;;;;;9.80;4.25;;;11.70;79.90;;;;;;10278961;28;20043;-88
2022/04/22 00:48:56;;;;;;;10.27;4.65;;;11.70;80.40;;;;;;10237558;28;20506;-89
2022/04/22 00:53:57;;;;;;;9.75;4.53;;;11.60;80.70;;;;;;10254485;28;20030;-88
2022/04/22 00:59:01;;;;;;;8.98;5.03;;;11.50;81.10;;;;;;10271591;28;20069;-88
2022/04/22 01:14:43;;;;;;;9.23;5.72;;;11.40;82.70;;;;;;10255794;28;20046;-88
2022/04/22 01:19:44;;;;;;;8.63;4.88;;;11.40;83.10;;;;;;10284903;28;20031;-86
2022/04/22 01:24:45;;;;;;;10.02;5.05;;;11.10;83.50;;;;;;10271419;28;20537;-88
2022/04/22 01:29:45;;;;;;;11.73;5.53;;;11.10;84.10;;;;;;10258863;28;20083;-88
2022/04/22 01:34:46;;;;;;;10.57;5.45;;;11.00;84.60;;;;;;10250303;28;20093;-88
2022/04/22 01:39:47;;;;;;;10.93;5.32;;;11.00;85.20;;;;;;10271844;28;20035;-88
2022/04/22 01:44:49;;;;;;;9.63;5.13;;;10.90;85.50;;;;;;10248087;28;20063;-88
2022/04/22 01:49:50;;;;;;;10.05;5.40;;;10.90;85.90;;;;;;10262964;28;20069;-86
2022/04/22 01:54:52;;;;;;;12.15;5.40;;;10.80;86.30;;;;;;10280582;28;20576;-88
2022/04/22 01:59:55;;;;;;;8.40;4.75;;;10.80;86.70;;;;;;10261482;28;20047;-88
2022/04/22 02:04:55;;;;;;;12.57;5.57;;;10.70;87.10;;;;;;10255114;28;20036;-87
2022/04/22 02:09:56;;;;;;;11.55;5.88;;;10.70;87.50;;;;;;10271992;28;20249;-87
2022/04/22 02:14:57;;;;;;;14.80;5.97;;;10.60;87.70;;;;;;10242326;28;20231;-88
2022/04/22 02:19:58;;;;;;;13.40;5.85;;;10.60;88.20;;;;;;10245652;28;20031;-87
2022/04/22 02:24:59;;;;;;;12.60;6.32;;;10.50;88.40;;;;;;10219817;28;20066;-88
2022/04/22 02:30:00;;;;;;;19.73;7.50;;;10.90;88.80;;;;;;10245748;28;20047;-88
2022/04/22 02:35:02;;;;;;;14.43;6.45;;;10.40;89.10;;;;;;10247308;28;20057;-87
2022/04/22 02:40:03;;;;;;;18.05;6.90;;;10.50;89.50;;;;;;10247124;28;20038;-86
2022/04/22 02:50:23;;;;;;;20.58;7.15;;;10.20;89.80;;;;;;10267162;28;20525;-88
2022/04/22 02:55:24;;;;;;;15.70;7.28;;;10.20;90.00;;;;;;10256852;28;20042;-87
2022/04/22 03:00:25;;;;;;;18.65;7.28;;;10.10;90.00;;;;;;10267095;28;20047;-88
2022/04/22 03:05:26;;;;;;;18.13;7.43;;;10.70;90.30;;;;;;10242951;28;20047;-87
2022/04/22 03:10:27;;;;;;;18.73;8.07;;;10.00;90.30;;;;;;10260685;28;20031;-87
2022/04/22 03:15:27;;;;;;;14.88;7.15;;;10.60;90.50;;;;;;10253632;28;20043;-88
2022/04/22 03:20:28;;;;;;;15.40;7.40;;;9.90;90.40;;;;;;10245705;28;20031;-87
2022/04/22 03:25:29;;;;;;;17.08;7.80;;;9.80;90.60;;;;;;10234437;28;20063;-87
2022/04/22 03:30:31;;;;;;;14.00;6.78;;;9.80;90.70;;;;;;10243823;28;20039;-87
2022/04/22 03:35:32;;;;;;;14.75;6.68;;;9.80;90.80;;;;;;10229717;28;20078;-86
2022/04/22 03:40:33;;;;;;;18.50;7.38;;;9.40;90.80;;;;;;10249181;28;20458;-88
2022/04/22 03:45:34;;;;;;;16.60;7.68;;;9.60;91.00;;;;;;10270461;28;20039;-88
2022/04/22 03:50:36;;;;;;;14.55;7.30;;;9.60;91.00;;;;;;10256230;28;20042;-87
2022/04/22 03:55:37;;;;;;;16.65;7.00;;;9.50;91.00;;;;;;10260912;28;20031;-88
2022/04/22 04:00:46;;;;;;;15.60;7.45;;;9.50;91.10;;;;;;10241939;28;20746;-88
2022/04/22 04:05:52;;;;;;;16.20;7.72;;;9.40;91.20;;;;;;10252871;28;20054;-88
2022/04/22 04:16:13;;;;;;;17.60;7.70;;;10.50;91.60;;;;;;10263667;28;20051;-88
2022/04/22 04:26:33;;;;;;;15.50;6.60;;;9.40;91.40;;;;;;10269938;28;20206;-86
2022/04/22 04:31:33;;;;;;;12.00;6.32;;;9.10;91.40;;;;;;10237888;28;20109;-88
2022/04/22 04:36:54;;;;;;;12.30;6.20;;;9.10;91.50;;;;;;10245092;28;20490;-88
2022/04/22 04:41:55;;;;;;;13.55;6.30;;;9.00;92.00;;;;;;10237327;28;20038;-89
2022/04/22 04:46:55;;;;;;;12.55;5.75;;;8.90;91.70;;;;;;10257605;28;20057;-87
2022/04/22 04:51:57;;;;;;;11.65;5.38;;;8.80;91.70;;;;;;10268068;28;20537;-87
2022/04/22 04:56:58;;;;;;;9.50;4.90;;;9.10;91.70;;;;;;10250467;28;20058;-88
2022/04/22 05:01:59;;;;;;;10.15;4.97;;;8.80;91.70;;;;;;10269342;28;20046;-87
2022/04/22 05:07:00;;;;;;;9.25;4.65;;;8.80;91.80;;;;;;10269751;28;20050;-87
2022/04/22 05:12:01;;;;;;;9.10;4.65;;;8.70;91.80;;;;;;10253405;28;20035;-87
2022/04/22 05:17:02;;;;;;;10.43;4.55;;;8.80;91.80;;;;;;10254414;28;20039;-88
2022/04/22 05:22:03;;;;;;;11.80;4.95;;;8.70;92.00;;;;;;10256922;28;20089;-87
2022/04/22 05:27:04;;;;;;;11.77;4.88;;;8.60;91.80;;;;;;10251584;28;20526;-88
2022/04/22 05:37:26;;;;;;;8.32;4.70;;;8.60;91.70;;;;;;10266187;28;20126;-88
2022/04/22 05:42:27;;;;;;;8.93;4.20;;;8.60;91.70;;;;;;10265741;28;20035;-87
2022/04/22 05:47:28;;;;;;;8.15;4.38;;;8.60;91.80;;;;;;10281756;28;20146;-88
2022/04/22 05:52:28;;;;;;;8.57;4.13;;;9.60;92.00;;;;;;10249175;28;20042;-88
2022/04/22 05:57:33;;;;;;;7.90;3.53;;;9.70;92.40;;;;;;10265524;28;20141;-87
2022/04/22 06:02:34;;;;;;;6.38;3.85;;;8.70;91.90;;;;;;10250027;28;20042;-87
2022/04/22 06:07:38;;;;;;;6.18;3.60;;;8.70;91.90;;;;;;10254525;28;20040;-85
2022/04/22 06:12:42;;;;;;;6.45;3.45;;;8.80;91.80;;;;;;10249056;28;20501;-88
2022/04/22 06:17:42;;;;;;;10.43;4.00;;;8.90;91.80;;;;;;10282172;28;20031;-89
2022/04/22 06:22:44;;;;;;;7.40;3.85;;;9.10;91.80;;;;;;10264420;28;20051;-87
2022/04/22 06:27:45;;;;;;;10.60;3.70;;;9.20;92.00;;;;;;10251125;28;20039;-86
2022/04/22 06:32:48;;;;;;;7.10;3.70;;;9.20;91.50;;;;;;10245359;28;20031;-88
2022/04/22 06:37:51;;;;;;;9.10;3.60;;;9.30;91.50;;;;;;10243446;28;20446;-88
2022/04/22 06:48:22;;;;;;;8.27;3.83;;;9.50;91.40;;;;;;10274779;28;20047;-87
2022/04/22 06:53:23;;;;;;;7.07;3.58;;;9.60;91.30;;;;;;10239079;28;20035;-87
2022/04/22 06:58:25;;;;;;;7.35;3.20;;;9.70;91.30;;;;;;10268564;28;20030;-87
2022/04/22 07:03:26;;;;;;;6.28;3.17;;;9.90;91.20;;;;;;10251161;28;20129;-87
2022/04/22 07:08:27;;;;;;;7.07;3.20;;;10.10;91.00;;;;;;10257020;28;20174;-86
2022/04/22 07:13:28;;;;;;;6.90;3.85;;;10.30;91.00;;;;;;10262348;28;20043;-88
2022/04/22 07:18:29;;;;;;;7.65;3.88;;;10.50;90.60;;;;;;10242564;28;20050;-88
2022/04/22 07:23:30;;;;;;;6.50;3.25;;;10.60;90.40;;;;;;10231063;28;20050;-88
2022/04/22 07:28:32;;;;;;;8.40;3.28;;;10.80;90.30;;;;;;10260877;28;20050;-87
2022/04/22 07:33:33;;;;;;;6.55;3.38;;;11.00;90.10;;;;;;10260895;28;20041;-88
2022/04/22 07:38:34;;;;;;;9.40;3.53;;;11.10;89.70;;;;;;10236181;28;20512;-86
2022/04/22 07:48:55;;;;;;;8.95;2.92;;;11.40;89.10;;;;;;10248477;28;20047;-86
2022/04/22 07:53:56;;;;;;;5.75;3.10;;;11.60;88.70;;;;;;10277956;28;20047;-88
2022/04/22 07:58:57;;;;;;;9.05;3.47;;;11.70;87.90;;;;;;10281354;28;20477;-88
2022/04/22 08:04:01;;;;;;;5.57;2.85;;;11.80;87.10;;;;;;10268691;28;20034;-86
2022/04/22 08:09:02;;;;;;;6.85;3.20;;;12.00;86.60;;;;;;10269632;28;20101;-89
2022/04/22 08:14:03;;;;;;;4.72;2.67;;;12.20;85.90;;;;;;10266992;28;20493;-88
2022/04/22 08:19:04;;;;;;;9.73;3.10;;;12.30;85.60;;;;;;10265820;28;20050;-88
2022/04/22 08:24:06;;;;;;;5.60;3.20;;;12.40;85.00;;;;;;10267630;28;20157;-89
2022/04/22 08:29:06;;;;;;;6.13;3.17;;;12.50;84.30;;;;;;10265795;28;20587;-88
2022/04/22 08:34:07;;;;;;;5.57;2.83;;;12.70;83.80;;;;;;10230429;28;20050;-87
2022/04/22 08:39:08;;;;;;;6.22;3.00;;;12.80;84.10;;;;;;10251636;28;20067;-87
2022/04/22 08:44:13;;;;;;;5.65;2.78;;;12.80;82.40;;;;;;10231147;28;20126;-87
2022/04/22 08:54:35;;;;;;;6.65;3.08;;;13.20;81.40;;;;;;10247528;28;20509;-88
2022/04/22 08:59:36;;;;;;;6.03;2.75;;;13.40;80.90;;;;;;10232062;28;20031;-88
2022/04/22 09:04:37;;;;;;;5.63;2.78;;;13.70;80.30;;;;;;10210226;28;20046;-87
2022/04/22 09:09:40;;;;;;;5.18;2.80;;;14.10;79.60;;;;;;10250120;28;20066;-89
2022/04/22 09:15:03;;;;;;;8.18;2.50;;;14.20;78.50;;;;;;10247647;28;20130;-88
2022/04/22 09:20:30;;;;;;;4.25;2.30;;;14.50;77.30;;;;;;10256991;28;20037;-86
2022/04/22 09:25:31;;;;;;;7.45;2.13;;;14.90;75.70;;;;;;10264097;28;20042;-86
2022/04/22 09:30:31;;;;;;;3.55;1.90;;;15.10;76.00;;;;;;10262376;28;20054;-88
2022/04/22 09:42:38;;;;;;;3.03;1.85;;;15.40;75.40;;;;;;10265307;28;20027;-88
2022/04/22 09:46:23;;;;;;;3.13;2.00;;;16.00;73.10;;;;;;10280584;28;20038;-89
2022/04/22 09:51:32;;;;;;;3.35;2.00;;;16.30;72.40;;;;;;10263677;28;20633;-90
2022/04/22 09:56:39;;;;;;;3.80;1.77;;;16.70;72.00;;;;;;10262337;28;20038;-90
2022/04/22 10:01:40;;;;;;;3.88;1.80;;;17.00;70.60;;;;;;10264604;28;20145;-87
2022/04/22 10:06:45;;;;;;;3.40;1.63;;;17.30;70.10;;;;;;10279129;28;20046;-88
2022/04/22 10:11:47;;;;;;;3.65;2.03;;;17.70;69.30;;;;;;10249817;28;20031;-88
2022/04/22 10:16:50;;;;;;;2.00;1.33;;;18.00;68.70;;;;;;10247578;28;20035;-89
2022/04/22 10:21:52;;;;;;;3.95;1.88;;;18.40;67.90;;;;;;10252774;28;21039;-88
2022/04/22 10:26:53;;;;;;;6.53;2.00;;;18.80;67.10;;;;;;10256160;28;20128;-91
2022/04/22 10:31:53;;;;;;;2.38;1.42;;;19.20;66.10;;;;;;10259612;28;20035;-89
2022/04/22 10:36:56;;;;;;;4.07;1.90;;;19.60;65.50;;;;;;10247631;28;20050;-89
2022/04/22 10:41:56;;;;;;;3.45;2.10;;;19.90;64.50;;;;;;10245639;28;20610;-90
2022/04/22 10:47:13;;;;;;;4.20;1.98;;;20.30;63.70;;;;;;10247689;28;20119;-88
2022/04/22 10:52:21;;;;;;;7.70;2.03;;;20.80;62.40;;;;;;10264664;28;20549;-89
2022/04/22 10:57:24;;;;;;;4.25;2.03;;;21.20;61.50;;;;;;10248838;28;20035;-89
2022/04/22 11:02:34;;;;;;;4.60;2.15;;;21.70;61.20;;;;;;10237349;28;20035;-90
2022/04/22 11:07:56;;;;;;;5.35;2.28;;;22.30;59.20;;;;;;10250265;28;20544;-88
2022/04/22 11:12:58;;;;;;;3.42;2.05;;;22.70;58.80;;;;;;10266548;28;20114;-90
2022/04/22 11:18:17;;;;;;;5.03;2.30;;;23.30;58.40;;;;;;10235352;28;20039;-90
2022/04/22 11:23:26;;;;;;;5.25;2.28;;;23.60;57.90;;;;;;10245847;28;20078;-89
2022/04/22 11:28:38;;;;;;;5.68;2.47;;;23.90;57.20;;;;;;10259725;28;20066;-88
2022/04/22 11:33:55;;;;;;;5.55;2.38;;;24.20;56.30;;;;;;10262652;28;20027;-88
2022/04/22 11:38:56;;;;;;;6.60;2.80;;;24.30;55.60;;;;;;10259269;28;20034;-91
2022/04/22 11:43:59;;;;;;;4.30;2.58;;;24.20;56.00;;;;;;10256449;28;20521;-89
2022/04/22 11:49:06;;;;;;;6.78;2.50;;;24.50;56.70;;;;;;10245357;28;20051;-88
2022/04/22 11:54:07;;;;;;;3.78;2.60;;;24.90;53.90;;;;;;10261056;28;20035;-89
2022/04/22 11:59:08;;;;;;;3.90;3.00;;;25.10;54.50;;;;;;10253240;28;20034;-89
2022/04/22 12:09:34;;;;;;;5.90;2.45;;;25.80;53.10;;;;;;10250210;28;20077;-88
2022/04/22 12:14:34;;;;;;;6.47;2.47;;;25.80;53.20;;;;;;10226643;28;20027;-89
2022/04/22 12:19:35;;;;;;;3.78;2.67;;;25.80;52.80;;;;;;10245213;28;20086;-88
2022/04/22 12:24:36;;;;;;;7.50;3.08;;;25.90;52.40;;;;;;10226198;28;20046;-90
2022/04/22 12:30:02;;;;;;;5.13;3.53;;;25.90;52.40;;;;;;10228704;28;20047;-88
2022/04/22 12:35:17;;;;;;;7.93;3.30;;;26.00;51.00;;;;;;10252392;28;20050;-90
2022/04/22 12:40:21;;;;;;;5.33;3.00;;;25.80;51.40;;;;;;10250154;28;20103;-88
2022/04/22 12:56:13;;;;;;;8.68;3.47;;;26.20;51.80;;;;;;10268049;28;20134;-89
2022/04/22 13:01:27;;;;;;;14.18;4.82;;;26.30;51.10;;;;;;10253983;28;20038;-90
2022/04/22 13:06:45;;;;;;;5.55;3.50;;;26.10;50.20;;;;;;10286678;28;20138;-89
2022/04/22 13:11:47;;;;;;;5.53;3.38;;;26.30;50.10;;;;;;10266095;28;20133;-88
2022/04/22 13:16:48;;;;;;;5.30;3.60;;;26.20;50.40;;;;;;10278281;28;20078;-91
2022/04/22 13:21:49;;;;;;;7.15;4.15;;;25.70;50.40;;;;;;10238417;28;20612;-89
2022/04/22 13:26:50;;;;;;;6.05;3.60;;;25.40;50.70;;;;;;10244703;28;20573;-88
2022/04/22 13:31:51;;;;;;;6.53;4.13;;;25.50;50.60;;;;;;10257147;28;20073;-89
2022/04/22 13:36:51;;;;;;;8.70;4.40;;;25.20;50.40;;;;;;10264740;28;20045;-88
2022/04/22 13:41:52;;;;;;;8.25;4.30;;;24.80;50.70;;;;;;10248769;28;20058;-88
2022/04/22 13:52:24;;;;;;;9.02;4.47;;;24.10;51.30;;;;;;10256503;28;20027;-87
2022/04/22 13:57:24;;;;;;;7.95;4.43;;;23.60;51.60;;;;;;10259262;28;20535;-86
2022/04/22 14:02:25;;;;;;;9.77;4.47;;;23.10;52.20;;;;;;10258180;28;20062;-87
2022/04/22 14:07:26;;;;;;;9.80;4.97;;;23.00;52.60;;;;;;10263062;28;20060;-88
2022/04/22 14:12:27;;;;;;;7.97;5.00;;;23.10;52.70;;;;;;10262819;28;20229;-89
2022/04/22 14:17:27;;;;;;;7.10;4.97;;;23.10;52.60;;;;;;10236592;28;20735;-86
2022/04/22 14:22:28;;;;;;;6.22;4.43;;;23.20;52.60;;;;;;10278266;28;20022;-87
2022/04/22 14:27:29;;;;;;;10.88;4.32;;;23.20;52.30;;;;;;10242936;28;20651;-89
2022/04/22 14:32:30;;;;;;;8.23;4.30;;;23.20;52.50;;;;;;10258185;28;20046;-88
2022/04/22 14:37:33;;;;;;;6.25;4.13;;;23.10;52.40;;;;;;10240627;28;20035;-87
2022/04/22 14:42:34;;;;;;;7.38;4.70;;;22.90;52.70;;;;;;10256406;28;20030;-88
2022/04/22 14:47:35;;;;;;;8.27;4.57;;;22.50;53.00;;;;;;10251553;28;20519;-88
2022/04/22 14:52:35;;;;;;;7.22;4.43;;;22.20;53.50;;;;;;10258487;28;20035;-86
2022/04/22 14:57:37;;;;;;;6.95;4.25;;;21.90;54.10;;;;;;10258544;28;20062;-89
2022/04/22 15:02:38;;;;;;;10.68;4.03;;;21.50;54.20;;;;;;10273102;28;20050;-87
2022/04/22 15:07:47;;;;;;;7.13;4.10;;;21.20;54.60;;;;;;10259084;28;20050;-89
2022/04/22 15:12:50;;;;;;;6.47;4.07;;;20.80;54.80;;;;;;10244530;28;20548;-86
2022/04/22 15:28:43;;;;;;;5.82;3.85;;;20.50;55.80;;;;;;10275868;28;20575;-87
2022/04/22 15:33:45;;;;;;;8.07;4.05;;;20.40;56.40;;;;;;10249471;28;20114;-88
2022/04/22 15:38:49;;;;;;;6.13;3.95;;;20.30;56.30;;;;;;10280152;28;20129;-87
2022/04/22 15:43:59;;;;;;;10.23;4.10;;;20.20;56.40;;;;;;10245578;28;20086;-87
2022/04/22 15:49:02;;;;;;;7.15;4.15;;;20.00;56.30;;;;;;10260933;28;20481;-87
2022/04/22 15:54:39;;;;;;;10.45;4.10;;;19.70;56.60;;;;;;10264517;28;20038;-87
2022/04/22 16:00:12;;;;;;;7.28;3.95;;;19.50;56.80;;;;;;10261394;28;20050;-87
2022/04/22 16:05:14;;;;;;;6.53;4.20;;;19.50;57.30;;;;;;10228051;28;20397;-88
2022/04/22 16:10:17;;;;;;;5.47;4.10;;;19.50;57.50;;;;;;10261593;28;20095;-87
2022/04/22 16:15:18;;;;;;;6.43;3.67;;;19.40;57.50;;;;;;10299834;28;20038;-87
2022/04/22 16:20:23;;;;;;;7.28;4.03;;;18.90;57.20;;;;;;10268959;28;20113;-87
2022/04/22 16:25:23;;;;;;;6.60;4.03;;;19.00;57.60;;;;;;10286666;28;20545;-87
2022/04/22 16:30:26;;;;;;;8.45;3.88;;;18.90;58.00;;;;;;10277199;28;20047;-87
2022/04/22 16:35:27;;;;;;;6.22;3.67;;;18.80;58.10;;;;;;10269046;28;20125;-86
2022/04/22 16:40:29;;;;;;;6.13;3.85;;;18.80;58.30;;;;;;10271056;28;20041;-88
2022/04/22 16:45:30;;;;;;;4.68;3.85;;;18.70;58.50;;;;;;10271334;28;20047;-87
2022/04/22 16:50:32;;;;;;;5.45;3.80;;;18.50;58.70;;;;;;10267894;28;20046;-86
2022/04/22 16:55:33;;;;;;;8.73;3.60;;;18.40;58.80;;;;;;10261484;28;20093;-87
2022/04/22 17:00:38;;;;;;;6.78;3.92;;;18.40;59.00;;;;;;10264378;28;20047;-87
2022/04/22 17:05:39;;;;;;;10.65;3.78;;;18.30;59.10;;;;;;10283631;28;20050;-89
2022/04/22 17:10:40;;;;;;;7.10;4.65;;;18.10;59.00;;;;;;10268876;28;20053;-85
2022/04/22 17:26:20;;;;;;;5.30;2.72;;;17.80;59.20;;;;;;10279457;28;20062;-87
2022/04/22 17:31:22;;;;;;;6.25;3.25;;;17.70;59.40;;;;;;10265570;28;20154;-87
2022/04/22 17:36:23;;;;;;;6.82;3.58;;;17.60;59.40;;;;;;10265460;28;20045;-86
2022/04/22 17:41:24;;;;;;;5.57;3.40;;;17.60;59.70;;;;;;10283013;28;20414;-87
2022/04/22 17:46:24;;;;;;;4.85;3.10;;;17.50;59.80;;;;;;10265189;28;20050;-85
2022/04/22 17:51:25;;;;;;;6.22;3.30;;;17.40;60.00;;;;;;10282316;28;20051;-87
2022/04/22 17:56:26;;;;;;;5.00;3.33;;;17.40;60.10;;;;;;10259478;28;20035;-87
2022/04/22 18:01:27;;;;;;;4.63;2.70;;;17.30;60.30;;;;;;10267696;28;20038;-88
2022/04/22 18:06:28;;;;;;;3.78;2.63;;;17.20;60.50;;;;;;10274077;28;20047;-87
2022/04/22 18:11:29;;;;;;;3.70;2.60;;;17.10;60.60;;;;;;10241837;28;20128;-87
2022/04/22 18:16:30;;;;;;;6.20;3.22;;;17.10;60.80;;;;;;10279816;28;20050;-87
2022/04/22 18:21:31;;;;;;;5.47;3.00;;;17.00;61.10;;;;;;10248124;28;20047;-86
2022/04/22 18:26:35;;;;;;;4.38;2.88;;;17.00;61.30;;;;;;10241865;28;20400;-88
2022/04/22 18:31:37;;;;;;;5.60;2.65;;;17.00;61.60;;;;;;10243587;28;20046;-86
2022/04/22 18:36:39;;;;;;;4.63;2.42;;;16.80;61.70;;;;;;10245863;28;20043;-86
2022/04/22 18:41:40;;;;;;;4.10;2.30;;;16.70;61.90;;;;;;10260777;28;20039;-87
2022/04/22 18:46:40;;;;;;;5.43;2.05;;;16.50;61.70;;;;;;10260520;28;20069;-87
2022/04/22 18:51:41;;;;;;;5.68;2.35;;;16.40;61.80;;;;;;10258615;28;20081;-85
2022/04/22 18:56:45;;;;;;;3.38;2.28;;;16.20;61.80;;;;;;10249038;28;20052;-86
2022/04/22 19:01:46;;;;;;;5.13;2.10;;;16.10;61.90;;;;;;10258451;28;20043;-86
2022/04/22 19:06:50;;;;;;;4.65;2.30;;;15.90;62.10;;;;;;10252502;28;20049;-85
2022/04/22 19:11:52;;;;;;;3.15;2.22;;;15.80;62.30;;;;;;10252799;28;20035;-85
2022/04/22 19:16:59;;;;;;;5.43;2.47;;;15.70;62.40;;;;;;10238954;28;20130;-85
2022/04/22 19:22:00;;;;;;;3.17;2.08;;;15.50;62.70;;;;;;10260790;28;20469;-86
2022/04/22 19:27:02;;;;;;;3.03;2.15;;;15.40;62.90;;;;;;10261915;28;20049;-87
2022/04/22 19:32:04;;;;;;;2.75;2.33;;;15.30;63.10;;;;;;10260039;28;20094;-85
2022/04/22 19:42:24;;;;;;;4.28;2.55;;;15.10;63.60;;;;;;10264878;28;20155;-84
2022/04/22 19:47:25;;;;;;;6.82;2.10;;;15.00;63.70;;;;;;10244452;28;20120;-86
2022/04/22 19:52:26;;;;;;;4.45;2.60;;;14.90;63.90;;;;;;10288197;28;20149;-86
2022/04/22 19:57:27;;;;;;;6.38;2.35;;;14.80;64.20;;;;;;10291097;28;20042;-87
2022/04/22 20:02:28;;;;;;;2.47;2.00;;;14.70;64.40;;;;;;10256438;28;20516;-86
2022/04/22 20:07:28;;;;;;;4.78;2.70;;;14.70;64.70;;;;;;10287375;28;20089;-86
2022/04/22 20:12:29;;;;;;;4.88;2.95;;;14.60;65.00;;;;;;10253784;28;20387;-86
2022/04/22 20:17:30;;;;;;;6.20;3.08;;;14.60;65.10;;;;;;10267215;28;20176;-86
2022/04/22 20:22:32;;;;;;;5.88;2.90;;;14.50;65.30;;;;;;10258540;28;20046;-87
2022/04/22 20:27:33;;;;;;;3.90;2.30;;;14.50;65.40;;;;;;10272853;28;20057;-86
2022/04/22 20:32:48;;;;;;;4.68;2.45;;;14.50;65.70;;;;;;10275705;28;20039;-86
2022/04/22 20:43:14;;;;;;;5.13;2.67;;;14.40;66.30;;;;;;10274730;28;20045;-86
2022/04/22 20:48:21;;;;;;;6.70;2.60;;;14.40;66.40;;;;;;10269736;28;20050;-86
2022/04/22 20:58:48;;;;;;;8.52;3.63;;;14.40;67.00;;;;;;10270113;28;20058;-86
2022/04/22 21:03:49;;;;;;;4.32;2.75;;;14.30;67.20;;;;;;10267284;28;20034;-86
2022/04/22 21:08:50;;;;;;;6.07;2.80;;;14.30;67.20;;;;;;10267286;28;20038;-86
2022/04/22 21:13:51;;;;;;;3.92;2.72;;;14.30;67.40;;;;;;10251316;28;20655;-85
2022/04/22 21:18:52;;;;;;;4.32;2.80;;;14.20;67.60;;;;;;10282079;28;20560;-85
2022/04/22 21:23:53;;;;;;;6.80;3.42;;;14.10;67.80;;;;;;10251722;28;20083;-86
2022/04/22 21:28:54;;;;;;;6.65;2.75;;;14.10;68.20;;;;;;10264511;28;20082;-86
2022/04/22 21:33:54;;;;;;;6.60;2.75;;;14.20;68.90;;;;;;10275631;28;20082;-86
2022/04/22 21:38:55;;;;;;;5.63;3.50;;;13.90;68.40;;;;;;10249914;28;20038;-87
2022/04/22 21:43:56;;;;;;;6.57;3.10;;;13.90;68.70;;;;;;10262339;28;20109;-88
2022/04/22 21:48:57;;;;;;;5.25;2.97;;;13.50;68.70;;;;;;10262629;28;20082;-87
2022/04/22 21:53:58;;;;;;;6.75;3.35;;;13.70;69.00;;;;;;10263569;28;20027;-87
2022/04/22 21:59:01;;;;;;;5.90;2.95;;;13.70;69.30;;;;;;10265570;28;20071;-86
2022/04/22 22:04:05;;;;;;;9.90;3.47;;;13.60;69.50;;;;;;10272518;28;20160;-86
2022/04/22 22:09:07;;;;;;;7.03;3.70;;;13.60;69.90;;;;;;10251651;28;20070;-87
2022/04/22 22:14:08;;;;;;;8.70;3.33;;;13.50;70.30;;;;;;10277485;28;20050;-87
2022/04/22 22:19:08;;;;;;;9.95;3.80;;;13.30;70.50;;;;;;10247907;28;20417;-86
2022/04/22 22:24:09;;;;;;;5.25;3.72;;;13.20;70.90;;;;;;10260943;28;20476;-88
2022/04/22 22:29:10;;;;;;;6.45;3.42;;;13.20;71.30;;;;;;10245177;28;20262;-88
2022/04/22 22:34:10;;;;;;;9.73;4.03;;;13.10;71.60;;;;;;10258079;28;20126;-88
2022/04/22 22:39:11;;;;;;;7.57;4.00;;;13.00;71.90;;;;;;10258790;28;20584;-87
2022/04/22 22:44:12;;;;;;;9.98;4.70;;;12.90;72.30;;;;;;10261126;28;20120;-87
2022/04/22 22:49:16;;;;;;;7.55;4.63;;;12.90;72.70;;;;;;10237446;28;20062;-87
2022/04/22 22:54:17;;;;;;;8.55;4.10;;;12.80;73.10;;;;;;10260302;28;20027;-87
2022/04/22 22:59:17;;;;;;;7.60;4.18;;;12.80;73.40;;;;;;10256010;28;20027;-87
2022/04/22 23:04:18;;;;;;;11.13;4.90;;;12.70;73.70;;;;;;10261413;28;20035;-86
2022/04/22 23:09:19;;;;;;;9.32;4.35;;;12.70;74.10;;;;;;10264014;28;20541;-88
2022/04/22 23:14:21;;;;;;;9.43;4.68;;;12.60;74.40;;;;;;10229822;28;20038;-87
2022/04/22 23:19:21;;;;;;;8.02;4.70;;;12.60;74.90;;;;;;10252453;28;20536;-86
2022/04/22 23:24:22;;;;;;;7.35;4.53;;;12.60;75.20;;;;;;10234566;28;20065;-87
2022/04/22 23:29:23;;;;;;;8.43;4.72;;;12.50;75.50;;;;;;10261473;28;20050;-86
2022/04/22 23:34:24;;;;;;;8.40;4.60;;;12.40;76.40;;;;;;10237131;28;20576;-87
2022/04/22 23:39:26;;;;;;;14.63;5.30;;;12.80;76.50;;;;;;10245118;28;20030;-88
2022/04/22 23:44:27;;;;;;;8.15;4.57;;;12.50;76.90;;;;;;10260848;28;20066;-87
2022/04/22 23:49:28;;;;;;;8.50;4.55;;;12.30;77.20;;;;;;10241942;28;20108;-87
2022/04/22 23:54:32;;;;;;;10.15;5.85;;;12.20;77.70;;;;;;10278504;28;20058;-87
2022/04/22 23:59:35;;;;;;;12.65;6.35;;;12.60;78.50;;;;;;10255641;28;20035;-86
